PWSweather.com
Personal Weather Stations
Station Observations
KMAMEDFI2
Medfield, MA 02052

Medfield, MA 02052

Lat: 42.1900822, Lon: -71.3296889

Elevation: 138

Station Type: Rainwise WS MK-III

http://www.medfieldweather.com

High Low Average
Temperature 82.6°F28.1°F 49.2°F9.6°F 66.0°F18.9°F
Dew Point 67.9°F19.9°F 48.4°F9.1°F 57.4°F14.1°F
Winds 2.7 mph WSW4.3 mph WSW Calm Calm 0.9 mph 1.4 mph
Wind Gusts 6.5 mph10.5 mph -- 1.4 mph2.3 mph
Humidity 99% 42% 78%
Pressure 30.29 in1025.70 in 30.12 in1020.00 in -
Precipitation 0.00 in0.00 in - -
Hour Temp Dew Point Humidity Winds Wind Gusts Pressure Precip Precip Rate Daily Precip Total
12:00 AM 52.7°F11.5°C 51.9°F11.1°C 97% Calm Calm -- 30.21 in1023.0 mb - 0.00 in0.0 mm 0.00 in0.0 mm
12:10 AM 52.5°F11.4°C 51.7°F10.9°C 97% Calm Calm -- 30.20 in1022.7 mb - 0.00 in0.0 mm 0.00 in0.0 mm
12:20 AM 52.6°F11.4°C 51.8°F11.0°C 97% Calm Calm -- 30.20 in1022.7 mb - 0.00 in0.0 mm 0.00 in0.0 mm
12:30 AM 52.9°F11.6°C 52.0°F11.1°C 97% 0.1 mph SW0.2 kmh SW 1.3 mph2.1 kmh 30.19 in1022.4 mb - 0.00 in0.0 mm 0.00 in0.0 mm
12:40 AM 53.4°F11.9°C 52.5°F11.4°C 97% 0.2 mph SW0.3 kmh SW 1.3 mph2.1 kmh 30.20 in1022.7 mb - 0.00 in0.0 mm 0.00 in0.0 mm
12:50 AM 54.1°F12.3°C 53.2°F11.8°C 97% 0.7 mph SW1.1 kmh SW -- 30.20 in1022.7 mb - 0.00 in0.0 mm 0.00 in0.0 mm
01:00 AM 54.1°F12.3°C 53.3°F11.8°C 97% Calm Calm -- 30.20 in1022.7 mb - 0.00 in0.0 mm 0.00 in0.0 mm
01:10 AM 53.9°F12.2°C 53.1°F11.7°C 97% 0.1 mph SW0.2 kmh SW -- 30.20 in1022.7 mb - 0.00 in0.0 mm 0.00 in0.0 mm
01:20 AM 53.6°F12.0°C 52.7°F11.5°C 97% Calm Calm -- 30.20 in1022.7 mb - 0.00 in0.0 mm 0.00 in0.0 mm
01:30 AM 53.2°F11.8°C 52.3°F11.3°C 97% Calm Calm -- 30.19 in1022.4 mb - 0.00 in0.0 mm 0.00 in0.0 mm
01:40 AM 52.9°F11.6°C 52.0°F11.1°C 97% Calm Calm -- 30.19 in1022.4 mb - 0.00 in0.0 mm 0.00 in0.0 mm
01:50 AM 52.3°F11.3°C 51.5°F10.8°C 97% Calm Calm -- 30.19 in1022.4 mb - 0.00 in0.0 mm 0.00 in0.0 mm
02:00 AM 52.4°F11.3°C 51.5°F10.8°C 97% Calm Calm -- 30.19 in1022.4 mb - 0.00 in0.0 mm 0.00 in0.0 mm
02:10 AM 52.6°F11.4°C 51.8°F11.0°C 97% Calm Calm -- 30.19 in1022.4 mb - 0.00 in0.0 mm 0.00 in0.0 mm
02:20 AM 52.5°F11.4°C 51.7°F10.9°C 97% Calm Calm -- 30.19 in1022.4 mb - 0.00 in0.0 mm 0.00 in0.0 mm
02:30 AM 52.4°F11.3°C 51.5°F10.8°C 97% Calm Calm -- 30.18 in1022.0 mb - 0.00 in0.0 mm 0.00 in0.0 mm
02:40 AM 52.2°F11.2°C 51.3°F10.7°C 97% Calm Calm -- 30.18 in1022.0 mb - 0.00 in0.0 mm 0.00 in0.0 mm
02:50 AM 51.6°F10.9°C 50.8°F10.4°C 97% Calm Calm -- 30.18 in1022.0 mb - 0.00 in0.0 mm 0.00 in0.0 mm
03:00 AM 51.8°F11.0°C 51.0°F10.6°C 97% Calm Calm -- 30.18 in1022.0 mb - 0.00 in0.0 mm 0.00 in0.0 mm
03:10 AM 51.6°F10.9°C 50.8°F10.4°C 97% Calm Calm -- 30.17 in1021.7 mb - 0.00 in0.0 mm 0.00 in0.0 mm
03:20 AM 51.3°F10.7°C 50.5°F10.3°C 97% Calm Calm -- 30.17 in1021.7 mb - 0.00 in0.0 mm 0.00 in0.0 mm
03:30 AM 51.0°F10.6°C 50.1°F10.1°C 97% Calm Calm -- 30.17 in1021.7 mb - 0.00 in0.0 mm 0.00 in0.0 mm
03:40 AM 50.6°F10.3°C 49.8°F9.9°C 97% Calm Calm -- 30.18 in1022.0 mb - 0.00 in0.0 mm 0.00 in0.0 mm
03:50 AM 50.3°F10.2°C 49.4°F9.7°C 97% Calm Calm -- 30.18 in1022.0 mb - 0.00 in0.0 mm 0.00 in0.0 mm
04:00 AM 50.1°F10.1°C 49.2°F9.6°C 97% Calm Calm -- 30.18 in1022.0 mb - 0.00 in0.0 mm 0.00 in0.0 mm
04:10 AM 50.2°F10.1°C 49.4°F9.7°C 97% Calm Calm -- 30.18 in1022.0 mb - 0.00 in0.0 mm 0.00 in0.0 mm
04:20 AM 50.4°F10.2°C 49.6°F9.8°C 97% Calm Calm -- 30.18 in1022.0 mb - 0.00 in0.0 mm 0.00 in0.0 mm
04:30 AM 50.3°F10.2°C 49.5°F9.7°C 97% Calm Calm -- 30.18 in1022.0 mb - 0.00 in0.0 mm 0.00 in0.0 mm
04:40 AM 50.2°F10.1°C 49.4°F9.7°C 97% Calm Calm -- 30.18 in1022.0 mb - 0.00 in0.0 mm 0.00 in0.0 mm
04:50 AM 50.0°F10.0°C 49.2°F9.6°C 97% Calm Calm -- 30.18 in1022.0 mb - 0.00 in0.0 mm 0.00 in0.0 mm
05:00 AM 49.9°F9.9°C 49.0°F9.4°C 97% Calm Calm -- 30.18 in1022.0 mb - 0.00 in0.0 mm 0.00 in0.0 mm
05:10 AM 49.5°F9.7°C 48.7°F9.3°C 97% Calm Calm -- 30.18 in1022.0 mb - 0.00 in0.0 mm 0.00 in0.0 mm
05:20 AM 49.6°F9.8°C 48.8°F9.3°C 97% Calm Calm -- 30.18 in1022.0 mb - 0.00 in0.0 mm 0.00 in0.0 mm
05:30 AM 49.7°F9.8°C 48.9°F9.4°C 97% Calm Calm -- 30.18 in1022.0 mb - 0.00 in0.0 mm 0.00 in0.0 mm
05:40 AM 49.2°F9.6°C 48.4°F9.1°C 97% Calm Calm -- 30.18 in1022.0 mb - 0.00 in0.0 mm 0.00 in0.0 mm
05:50 AM 49.8°F9.9°C 49.0°F9.4°C 97% Calm Calm -- 30.19 in1022.4 mb - 0.00 in0.0 mm 0.00 in0.0 mm
06:00 AM 50.2°F10.1°C 49.4°F9.7°C 97% Calm Calm -- 30.19 in1022.4 mb - 0.00 in0.0 mm 0.00 in0.0 mm
06:20 AM 50.4°F10.2°C 49.6°F9.8°C 97% Calm Calm -- 30.19 in1022.4 mb - 0.00 in0.0 mm 0.00 in0.0 mm
06:30 AM 50.2°F10.1°C 49.4°F9.7°C 97% Calm Calm -- 30.19 in1022.4 mb - 0.00 in0.0 mm 0.00 in0.0 mm
06:40 AM 50.9°F10.5°C 50.1°F10.1°C 97% Calm Calm -- 30.19 in1022.4 mb - 0.00 in0.0 mm 0.00 in0.0 mm
06:50 AM 51.3°F10.7°C 50.5°F10.3°C 97% Calm Calm -- 30.19 in1022.4 mb - 0.00 in0.0 mm 0.00 in0.0 mm
07:00 AM 51.4°F10.8°C 50.6°F10.3°C 97% Calm Calm -- 30.19 in1022.4 mb - 0.00 in0.0 mm 0.00 in0.0 mm
07:10 AM 52.7°F11.5°C 51.9°F11.1°C 97% Calm Calm -- 30.20 in1022.7 mb - 0.00 in0.0 mm 0.00 in0.0 mm
07:20 AM 53.5°F11.9°C 52.7°F11.5°C 97% Calm Calm -- 30.20 in1022.7 mb - 0.00 in0.0 mm 0.00 in0.0 mm
07:30 AM 54.3°F12.4°C 53.4°F11.9°C 97% Calm Calm -- 30.21 in1023.0 mb - 0.00 in0.0 mm 0.00 in0.0 mm
07:40 AM 55.7°F13.2°C 54.9°F12.7°C 97% Calm Calm -- 30.21 in1023.0 mb - 0.00 in0.0 mm 0.00 in0.0 mm
07:50 AM 57.0°F13.9°C 56.1°F13.4°C 97% Calm Calm -- 30.21 in1023.0 mb - 0.00 in0.0 mm 0.00 in0.0 mm
08:00 AM 58.9°F14.9°C 58.4°F14.7°C 98% Calm Calm -- 30.21 in1023.0 mb - 0.00 in0.0 mm 0.00 in0.0 mm
08:10 AM 59.6°F15.3°C 59.1°F15.1°C 98% Calm Calm -- 30.21 in1023.0 mb - 0.00 in0.0 mm 0.00 in0.0 mm
08:20 AM 60.9°F16.1°C 60.4°F15.8°C 98% 0.4 mph NNE0.6 kmh NNE 1.3 mph2.1 kmh 30.21 in1023.0 mb - 0.00 in0.0 mm 0.00 in0.0 mm
08:30 AM 61.7°F16.5°C 61.1°F16.2°C 98% 1.4 mph NW2.3 kmh NW 3.9 mph6.3 kmh 30.22 in1023.4 mb - 0.00 in0.0 mm 0.00 in0.0 mm
08:40 AM 62.2°F16.8°C 61.6°F16.4°C 98% 1.7 mph NNW2.7 kmh NNW 3.9 mph6.3 kmh 30.22 in1023.4 mb - 0.00 in0.0 mm 0.00 in0.0 mm
08:50 AM 63.8°F17.7°C 63.2°F17.3°C 98% 2.4 mph NNW3.9 kmh NNW 2.6 mph4.2 kmh 30.23 in1023.7 mb - 0.00 in0.0 mm 0.00 in0.0 mm
09:00 AM 65.1°F18.4°C 64.5°F18.1°C 98% 0.3 mph N0.5 kmh N 2.6 mph4.2 kmh 30.24 in1024.0 mb - 0.00 in0.0 mm 0.00 in0.0 mm
09:10 AM 66.8°F19.3°C 66.6°F19.2°C 99% 1.2 mph SW1.9 kmh SW 2.6 mph4.2 kmh 30.25 in1024.4 mb - 0.00 in0.0 mm 0.00 in0.0 mm
09:20 AM 68.5°F20.3°C 67.9°F19.9°C 98% 0.4 mph W0.6 kmh W 1.3 mph2.1 kmh 30.26 in1024.7 mb - 0.00 in0.0 mm 0.00 in0.0 mm
09:30 AM 69.4°F20.8°C 67.9°F19.9°C 95% 1.5 mph SW2.4 kmh SW 2.6 mph4.2 kmh 30.27 in1025.1 mb - 0.00 in0.0 mm 0.00 in0.0 mm
09:40 AM 70.1°F21.2°C 65.1°F18.4°C 84% 2.5 mph S4.0 kmh S 2.6 mph4.2 kmh 30.27 in1025.1 mb - 0.00 in0.0 mm 0.00 in0.0 mm
09:50 AM 71.6°F22.0°C 64.0°F17.8°C 77% 1.9 mph N3.1 kmh N 2.6 mph4.2 kmh 30.27 in1025.1 mb - 0.00 in0.0 mm 0.00 in0.0 mm
10:00 AM 72.3°F22.4°C 64.7°F18.2°C 77% 2.4 mph NW3.9 kmh NW 2.6 mph4.2 kmh 30.27 in1025.1 mb - 0.00 in0.0 mm 0.00 in0.0 mm
10:10 AM 72.9°F22.7°C 62.1°F16.7°C 69% 2.2 mph SSE3.5 kmh SSE 2.6 mph4.2 kmh 30.28 in1025.4 mb - 0.00 in0.0 mm 0.00 in0.0 mm
10:20 AM 73.9°F23.3°C 64.3°F17.9°C 72% 2.7 mph WSW4.3 kmh WSW 3.9 mph6.3 kmh 30.27 in1025.1 mb - 0.00 in0.0 mm 0.00 in0.0 mm
10:30 AM 75.1°F23.9°C 62.6°F17.0°C 65% 1.6 mph W2.6 kmh W 2.6 mph4.2 kmh 30.27 in1025.1 mb - 0.00 in0.0 mm 0.00 in0.0 mm
10:40 AM 75.9°F24.4°C 61.5°F16.4°C 61% 2.4 mph WNW3.9 kmh WNW 5.2 mph8.4 kmh 30.28 in1025.4 mb - 0.00 in0.0 mm 0.00 in0.0 mm
10:50 AM 75.7°F24.3°C 61.7°F16.5°C 62% 1.0 mph W1.6 kmh W 2.6 mph4.2 kmh 30.28 in1025.4 mb - 0.00 in0.0 mm 0.00 in0.0 mm
11:00 AM 74.7°F23.7°C 58.0°F14.4°C 56% 2.3 mph NNE3.7 kmh NNE 2.6 mph4.2 kmh 30.29 in1025.7 mb - 0.00 in0.0 mm 0.00 in0.0 mm
11:10 AM 75.0°F23.9°C 60.6°F15.9°C 61% 0.5 mph NW0.8 kmh NW 1.3 mph2.1 kmh 30.28 in1025.4 mb - 0.00 in0.0 mm 0.00 in0.0 mm
11:20 AM 75.9°F24.4°C 58.6°F14.8°C 55% 2.5 mph E4.0 kmh E 6.5 mph10.5 kmh 30.27 in1025.1 mb - 0.00 in0.0 mm 0.00 in0.0 mm
11:30 AM 76.5°F24.7°C 58.6°F14.8°C 54% 2.4 mph W3.9 kmh W 2.6 mph4.2 kmh 30.27 in1025.1 mb - 0.00 in0.0 mm 0.00 in0.0 mm
11:40 AM 77.4°F25.2°C 59.0°F15.0°C 53% 2.1 mph NE3.4 kmh NE 2.6 mph4.2 kmh 30.27 in1025.1 mb - 0.00 in0.0 mm 0.00 in0.0 mm
11:50 AM 77.7°F25.4°C 60.2°F15.7°C 55% 1.7 mph E2.7 kmh E 2.6 mph4.2 kmh 30.27 in1025.1 mb - 0.00 in0.0 mm 0.00 in0.0 mm
12:00 PM 77.6°F25.3°C 58.0°F14.4°C 51% 1.8 mph SW2.9 kmh SW 2.6 mph4.2 kmh 30.27 in1025.1 mb - 0.00 in0.0 mm 0.00 in0.0 mm
12:10 PM 77.9°F25.5°C 58.9°F14.9°C 52% 1.7 mph S2.7 kmh S 2.6 mph4.2 kmh 30.26 in1024.7 mb - 0.00 in0.0 mm 0.00 in0.0 mm
12:20 PM 78.5°F25.8°C 58.3°F14.6°C 50% 2.7 mph E4.3 kmh E 2.6 mph4.2 kmh 30.27 in1025.1 mb - 0.00 in0.0 mm 0.00 in0.0 mm
12:30 PM 79.0°F26.1°C 58.2°F14.6°C 49% 1.3 mph WNW2.1 kmh WNW 5.2 mph8.4 kmh 30.26 in1024.7 mb - 0.00 in0.0 mm 0.00 in0.0 mm
12:40 PM 79.3°F26.3°C 61.7°F16.5°C 55% 1.4 mph SW2.3 kmh SW 2.6 mph4.2 kmh 30.26 in1024.7 mb - 0.00 in0.0 mm 0.00 in0.0 mm
12:50 PM 79.4°F26.3°C 60.3°F15.7°C 52% 1.5 mph SSW2.4 kmh SSW 2.6 mph4.2 kmh 30.25 in1024.4 mb - 0.00 in0.0 mm 0.00 in0.0 mm
01:00 PM 79.5°F26.4°C 58.7°F14.8°C 49% 2.2 mph ENE3.5 kmh ENE 2.6 mph4.2 kmh 30.25 in1024.4 mb - 0.00 in0.0 mm 0.00 in0.0 mm
01:10 PM 80.0°F26.7°C 57.3°F14.1°C 46% 2.4 mph S3.9 kmh S 2.6 mph4.2 kmh 30.25 in1024.4 mb - 0.00 in0.0 mm 0.00 in0.0 mm
01:20 PM 80.1°F26.7°C 58.0°F14.4°C 47% 2.5 mph NW4.0 kmh NW 2.6 mph4.2 kmh 30.25 in1024.4 mb - 0.00 in0.0 mm 0.00 in0.0 mm
01:30 PM 80.0°F26.7°C 61.3°F16.3°C 53% 1.1 mph NE1.8 kmh NE 2.6 mph4.2 kmh 30.25 in1024.4 mb - 0.00 in0.0 mm 0.00 in0.0 mm
01:40 PM 78.3°F25.7°C 62.3°F16.8°C 58% 1.2 mph NE1.9 kmh NE 2.6 mph4.2 kmh 30.25 in1024.4 mb - 0.00 in0.0 mm 0.00 in0.0 mm
01:50 PM 79.9°F26.6°C 60.7°F15.9°C 52% 2.1 mph E3.4 kmh E 2.6 mph4.2 kmh 30.24 in1024.0 mb - 0.00 in0.0 mm 0.00 in0.0 mm
02:00 PM 80.2°F26.8°C 59.8°F15.4°C 50% 1.9 mph E3.1 kmh E 2.6 mph4.2 kmh 30.23 in1023.7 mb - 0.00 in0.0 mm 0.00 in0.0 mm
02:10 PM 80.9°F27.2°C 57.5°F14.2°C 45% 1.8 mph NW2.9 kmh NW 2.6 mph4.2 kmh 30.23 in1023.7 mb - 0.00 in0.0 mm 0.00 in0.0 mm
02:20 PM 81.2°F27.3°C 59.6°F15.3°C 48% 1.9 mph E3.1 kmh E 2.6 mph4.2 kmh 30.23 in1023.7 mb - 0.00 in0.0 mm 0.00 in0.0 mm
02:30 PM 81.3°F27.4°C 57.9°F14.4°C 45% 2.6 mph SSW4.2 kmh SSW 5.2 mph8.4 kmh 30.23 in1023.7 mb - 0.00 in0.0 mm 0.00 in0.0 mm
02:40 PM 80.7°F27.1°C 56.8°F13.8°C 44% 2.6 mph SE4.2 kmh SE 3.9 mph6.3 kmh 30.23 in1023.7 mb - 0.00 in0.0 mm 0.00 in0.0 mm
02:50 PM 81.2°F27.3°C 61.3°F16.3°C 51% 1.0 mph E1.6 kmh E 2.6 mph4.2 kmh 30.23 in1023.7 mb - 0.00 in0.0 mm 0.00 in0.0 mm
03:00 PM 82.0°F27.8°C 57.9°F14.4°C 44% 1.6 mph W2.6 kmh W 2.6 mph4.2 kmh 30.23 in1023.7 mb - 0.00 in0.0 mm 0.00 in0.0 mm
03:10 PM 82.6°F28.1°C 57.2°F14.0°C 42% 1.8 mph SSE2.9 kmh SSE 2.6 mph4.2 kmh 30.23 in1023.7 mb - 0.00 in0.0 mm 0.00 in0.0 mm
03:20 PM 80.0°F26.7°C 59.7°F15.4°C 50% 2.2 mph ENE3.5 kmh ENE 2.6 mph4.2 kmh 30.23 in1023.7 mb - 0.00 in0.0 mm 0.00 in0.0 mm
03:30 PM 79.2°F26.2°C 59.0°F15.0°C 50% 2.0 mph NE3.2 kmh NE 3.9 mph6.3 kmh 30.22 in1023.4 mb - 0.00 in0.0 mm 0.00 in0.0 mm
03:40 PM 80.9°F27.2°C 58.2°F14.6°C 46% 2.1 mph E3.4 kmh E 3.9 mph6.3 kmh 30.22 in1023.4 mb - 0.00 in0.0 mm 0.00 in0.0 mm
03:50 PM 81.7°F27.6°C 59.5°F15.3°C 47% 1.0 mph SE1.6 kmh SE 2.6 mph4.2 kmh 30.22 in1023.4 mb - 0.00 in0.0 mm 0.00 in0.0 mm
04:00 PM 82.4°F28.0°C 60.1°F15.6°C 47% 1.8 mph ESE2.9 kmh ESE 2.6 mph4.2 kmh 30.21 in1023.0 mb - 0.00 in0.0 mm 0.00 in0.0 mm
04:10 PM 81.7°F27.6°C 57.6°F14.2°C 44% 2.5 mph ESE4.0 kmh ESE 2.6 mph4.2 kmh 30.21 in1023.0 mb - 0.00 in0.0 mm 0.00 in0.0 mm
04:20 PM 82.0°F27.8°C 58.0°F14.4°C 44% 2.5 mph S4.0 kmh S 5.2 mph8.4 kmh 30.21 in1023.0 mb - 0.00 in0.0 mm 0.00 in0.0 mm
04:30 PM 81.8°F27.7°C 61.4°F16.3°C 50% 1.4 mph NE2.3 kmh NE 2.6 mph4.2 kmh 30.21 in1023.0 mb - 0.00 in0.0 mm 0.00 in0.0 mm
04:40 PM 80.7°F27.1°C 58.0°F14.4°C 46% 2.1 mph SE3.4 kmh SE 2.6 mph4.2 kmh 30.21 in1023.0 mb - 0.00 in0.0 mm 0.00 in0.0 mm
04:50 PM 79.6°F26.4°C 59.9°F15.5°C 51% 1.8 mph SE2.9 kmh SE 2.6 mph4.2 kmh 30.21 in1023.0 mb - 0.00 in0.0 mm 0.00 in0.0 mm
05:00 PM 80.7°F27.1°C 58.6°F14.8°C 47% 0.7 mph NNE1.1 kmh NNE 2.6 mph4.2 kmh 30.21 in1023.0 mb - 0.00 in0.0 mm 0.00 in0.0 mm
05:10 PM 80.7°F27.1°C 57.3°F14.1°C 45% 2.3 mph ESE3.7 kmh ESE 2.6 mph4.2 kmh 30.20 in1022.7 mb - 0.00 in0.0 mm 0.00 in0.0 mm
05:20 PM 80.4°F26.9°C 60.0°F15.6°C 50% 0.3 mph SSE0.5 kmh SSE -- 30.19 in1022.4 mb - 0.00 in0.0 mm 0.00 in0.0 mm
05:30 PM 79.0°F26.1°C 59.9°F15.5°C 52% 2.2 mph NE3.5 kmh NE 2.6 mph4.2 kmh 30.19 in1022.4 mb - 0.00 in0.0 mm 0.00 in0.0 mm
05:40 PM 78.8°F26.0°C 58.0°F14.4°C 49% 2.3 mph ESE3.7 kmh ESE 2.6 mph4.2 kmh 30.19 in1022.4 mb - 0.00 in0.0 mm 0.00 in0.0 mm
05:50 PM 78.3°F25.7°C 58.2°F14.6°C 50% 0.2 mph NW0.3 kmh NW -- 30.19 in1022.4 mb - 0.00 in0.0 mm 0.00 in0.0 mm
06:00 PM 77.9°F25.5°C 61.0°F16.1°C 56% 0.5 mph NE0.8 kmh NE 1.3 mph2.1 kmh 30.18 in1022.0 mb - 0.00 in0.0 mm 0.00 in0.0 mm
06:10 PM 77.4°F25.2°C 56.7°F13.7°C 49% 2.1 mph S3.4 kmh S 2.6 mph4.2 kmh 30.18 in1022.0 mb - 0.00 in0.0 mm 0.00 in0.0 mm
06:20 PM 76.9°F24.9°C 56.3°F13.5°C 49% 1.8 mph S2.9 kmh S 2.6 mph4.2 kmh 30.18 in1022.0 mb - 0.00 in0.0 mm 0.00 in0.0 mm
06:30 PM 76.0°F24.4°C 58.2°F14.6°C 54% Calm Calm -- 30.17 in1021.7 mb - 0.00 in0.0 mm 0.00 in0.0 mm
06:40 PM 75.2°F24.0°C 61.3°F16.3°C 62% Calm Calm -- 30.17 in1021.7 mb - 0.00 in0.0 mm 0.00 in0.0 mm
06:50 PM 74.3°F23.5°C 60.0°F15.6°C 61% Calm Calm -- 30.17 in1021.7 mb - 0.00 in0.0 mm 0.00 in0.0 mm
07:00 PM 73.7°F23.2°C 63.3°F17.4°C 70% Calm Calm -- 30.17 in1021.7 mb - 0.00 in0.0 mm 0.00 in0.0 mm
07:10 PM 73.3°F22.9°C 63.0°F17.2°C 70% Calm Calm -- 30.17 in1021.7 mb - 0.00 in0.0 mm 0.00 in0.0 mm
07:20 PM 72.8°F22.7°C 62.0°F16.7°C 69% 2.0 mph ESE3.2 kmh ESE 2.6 mph4.2 kmh 30.17 in1021.7 mb - 0.00 in0.0 mm 0.00 in0.0 mm
07:30 PM 72.1°F22.3°C 60.9°F16.1°C 68% 2.5 mph SE4.0 kmh SE 3.9 mph6.3 kmh 30.16 in1021.3 mb - 0.00 in0.0 mm 0.00 in0.0 mm
07:40 PM 71.7°F22.1°C 61.4°F16.3°C 70% 2.2 mph NNW3.5 kmh NNW 2.6 mph4.2 kmh 30.16 in1021.3 mb - 0.00 in0.0 mm 0.00 in0.0 mm
08:00 PM 70.6°F21.4°C 61.9°F16.6°C 74% 1.3 mph E2.1 kmh E 2.6 mph4.2 kmh 30.16 in1021.3 mb - 0.00 in0.0 mm 0.00 in0.0 mm
08:10 PM 70.1°F21.2°C 62.6°F17.0°C 77% 0.7 mph NE1.1 kmh NE 1.3 mph2.1 kmh 30.15 in1021.0 mb - 0.00 in0.0 mm 0.00 in0.0 mm
08:20 PM 69.5°F20.8°C 62.7°F17.1°C 79% Calm Calm -- 30.15 in1021.0 mb - 0.00 in0.0 mm 0.00 in0.0 mm
08:30 PM 68.3°F20.2°C 62.6°F17.0°C 82% 2.2 mph NNE3.5 kmh NNE 2.6 mph4.2 kmh 30.15 in1021.0 mb - 0.00 in0.0 mm 0.00 in0.0 mm
08:40 PM 67.6°F19.8°C 62.6°F17.0°C 84% 0.2 mph N0.3 kmh N 1.3 mph2.1 kmh 30.15 in1021.0 mb - 0.00 in0.0 mm 0.00 in0.0 mm
08:50 PM 66.9°F19.4°C 62.6°F17.0°C 86% 2.4 mph SE3.9 kmh SE 6.5 mph10.5 kmh 30.15 in1021.0 mb - 0.00 in0.0 mm 0.00 in0.0 mm
09:00 PM 66.4°F19.1°C 62.4°F16.9°C 87% Calm Calm -- 30.15 in1021.0 mb - 0.00 in0.0 mm 0.00 in0.0 mm
09:10 PM 65.7°F18.7°C 62.1°F16.7°C 88% Calm Calm -- 30.15 in1021.0 mb - 0.00 in0.0 mm 0.00 in0.0 mm
09:20 PM 65.2°F18.4°C 61.9°F16.6°C 89% 0.1 mph SE0.2 kmh SE 1.3 mph2.1 kmh 30.16 in1021.3 mb - 0.00 in0.0 mm 0.00 in0.0 mm
09:30 PM 64.9°F18.3°C 61.9°F16.6°C 90% Calm Calm -- 30.16 in1021.3 mb - 0.00 in0.0 mm 0.00 in0.0 mm
09:40 PM 64.6°F18.1°C 61.9°F16.6°C 91% Calm Calm -- 30.15 in1021.0 mb - 0.00 in0.0 mm 0.00 in0.0 mm
09:50 PM 64.1°F17.8°C 61.5°F16.4°C 91% Calm Calm -- 30.15 in1021.0 mb - 0.00 in0.0 mm 0.00 in0.0 mm
10:00 PM 63.5°F17.5°C 61.5°F16.4°C 93% Calm Calm -- 30.15 in1021.0 mb - 0.00 in0.0 mm 0.00 in0.0 mm
10:10 PM 62.9°F17.2°C 61.2°F16.2°C 94% Calm Calm -- 30.15 in1021.0 mb - 0.00 in0.0 mm 0.00 in0.0 mm
10:20 PM 62.6°F17.0°C 61.5°F16.4°C 96% Calm Calm -- 30.14 in1020.7 mb - 0.00 in0.0 mm 0.00 in0.0 mm
10:30 PM 62.4°F16.9°C 61.5°F16.4°C 97% Calm Calm -- 30.14 in1020.7 mb - 0.00 in0.0 mm 0.00 in0.0 mm
10:40 PM 62.1°F16.7°C 61.2°F16.2°C 97% Calm Calm -- 30.14 in1020.7 mb - 0.00 in0.0 mm 0.00 in0.0 mm
10:50 PM 61.7°F16.5°C 61.1°F16.2°C 98% Calm Calm -- 30.14 in1020.7 mb - 0.00 in0.0 mm 0.00 in0.0 mm
11:00 PM 61.4°F16.3°C 60.8°F16.0°C 98% Calm Calm -- 30.14 in1020.7 mb - 0.00 in0.0 mm 0.00 in0.0 mm
11:10 PM 61.2°F16.2°C 60.6°F15.9°C 98% Calm Calm -- 30.13 in1020.3 mb - 0.00 in0.0 mm 0.00 in0.0 mm
11:20 PM 60.9°F16.1°C 60.3°F15.7°C 98% Calm Calm -- 30.13 in1020.3 mb - 0.00 in0.0 mm 0.00 in0.0 mm
11:30 PM 60.8°F16.0°C 60.2°F15.7°C 98% Calm Calm -- 30.13 in1020.3 mb - 0.00 in0.0 mm 0.00 in0.0 mm
11:40 PM 60.6°F15.9°C 60.0°F15.6°C 98% Calm Calm -- 30.13 in1020.3 mb - 0.00 in0.0 mm 0.00 in0.0 mm
11:50 PM 60.4°F15.8°C 59.8°F15.4°C 98% Calm Calm -- 30.12 in1020.0 mb - 0.00 in0.0 mm 0.00 in0.0 mm